createdAt,value
2023-03-15T00:00:03.075Z,3.50
2023-03-15T00:01:03.186Z,3.50
2023-03-15T00:02:03.355Z,3.50
2023-03-15T00:03:03.218Z,3.50
2023-03-15T00:04:03.211Z,3.50
2023-03-15T00:05:03.235Z,3.50
2023-03-15T00:06:03.290Z,3.50
2023-03-15T00:07:03.233Z,3.50
2023-03-15T00:08:04.513Z,3.40
2023-03-15T00:09:03.262Z,3.40
2023-03-15T00:10:03.300Z,3.40
2023-03-15T00:11:03.347Z,3.40
2023-03-15T00:12:03.351Z,3.40
2023-03-15T00:13:03.376Z,3.40
2023-03-15T00:14:03.377Z,3.40
2023-03-15T00:15:03.430Z,3.40
2023-03-15T00:16:03.658Z,3.40
2023-03-15T00:17:02.727Z,3.40
2023-03-15T00:18:02.825Z,3.40
2023-03-15T00:19:02.808Z,3.30
2023-03-15T00:20:02.812Z,3.30
2023-03-15T00:21:02.971Z,3.30
2023-03-15T00:22:02.975Z,3.30
2023-03-15T00:23:02.901Z,3.30
2023-03-15T00:24:03.039Z,3.30
2023-03-15T00:25:03.011Z,3.30
2023-03-15T00:26:03.080Z,3.30
2023-03-15T00:27:03.073Z,3.30
2023-03-15T00:28:03.019Z,3.30
2023-03-15T00:29:03.075Z,3.30
2023-03-15T00:30:03.014Z,3.30
2023-03-15T00:31:03.050Z,3.30
2023-03-15T00:32:03.173Z,3.30
2023-03-15T00:33:03.532Z,3.30
2023-03-15T00:34:03.532Z,3.30
2023-03-15T00:35:03.595Z,3.20
2023-03-15T00:36:03.572Z,3.20
2023-03-15T00:37:02.654Z,3.20
2023-03-15T00:38:03.665Z,3.20
2023-03-15T00:39:03.690Z,3.20
2023-03-15T00:40:03.533Z,3.20
2023-03-15T00:41:03.640Z,3.20
2023-03-15T00:42:03.566Z,3.20
2023-03-15T00:43:02.611Z,3.20
2023-03-15T00:44:02.707Z,3.20
2023-03-15T00:45:02.659Z,3.20
2023-03-15T00:46:02.694Z,3.20
2023-03-15T00:47:02.639Z,3.20
2023-03-15T00:48:02.758Z,3.10
2023-03-15T00:49:02.688Z,3.20
2023-03-15T00:50:02.768Z,3.20
2023-03-15T00:51:02.755Z,3.10
2023-03-15T00:52:02.812Z,3.10
2023-03-15T00:53:02.857Z,3.10
2023-03-15T00:54:02.811Z,3.10
2023-03-15T00:55:02.836Z,3.10
2023-03-15T00:56:02.816Z,3.10
2023-03-15T00:57:02.725Z,3.10
2023-03-15T00:58:02.799Z,3.10
2023-03-15T00:59:02.965Z,3.10
2023-03-15T01:00:02.963Z,3.10
2023-03-15T01:01:02.986Z,3.10
2023-03-15T01:02:03.135Z,3.10
2023-03-15T01:03:03.218Z,3.10
2023-03-15T01:04:03.158Z,3.00
2023-03-15T01:05:03.225Z,3.00
2023-03-15T01:06:03.133Z,3.00
2023-03-15T01:07:03.179Z,3.00
2023-03-15T01:08:03.180Z,3.00
2023-03-15T01:09:03.208Z,3.00
2023-03-15T01:10:03.521Z,3.00
2023-03-15T01:11:03.374Z,3.00
2023-03-15T01:12:03.487Z,3.00
2023-03-15T01:13:03.617Z,3.00
2023-03-15T01:14:03.492Z,3.00
2023-03-15T01:15:03.555Z,3.00
2023-03-15T01:16:02.701Z,3.00
2023-03-15T01:17:03.654Z,3.00
2023-03-15T01:18:02.704Z,3.00
2023-03-15T01:19:02.726Z,3.00
2023-03-15T01:20:02.712Z,3.00
2023-03-15T01:21:02.690Z,3.00
2023-03-15T01:22:02.605Z,3.00
2023-03-15T01:23:02.719Z,2.90
2023-03-15T01:24:02.660Z,2.90
2023-03-15T01:25:02.683Z,2.90
2023-03-15T01:26:02.727Z,2.90
2023-03-15T01:27:02.700Z,2.90
2023-03-15T01:28:02.778Z,2.90
2023-03-15T01:29:02.895Z,2.90
2023-03-15T01:30:02.965Z,2.90
2023-03-15T01:31:02.837Z,2.90
2023-03-15T01:32:02.941Z,2.90
2023-03-15T01:33:02.955Z,2.90
2023-03-15T01:34:03.003Z,2.90
2023-03-15T01:35:02.990Z,2.90
2023-03-15T01:36:03.126Z,2.90
2023-03-15T01:37:03.103Z,2.80
2023-03-15T01:38:03.027Z,2.80
2023-03-15T01:39:03.078Z,2.80
2023-03-15T01:40:03.234Z,2.80
2023-03-15T01:41:03.270Z,2.80
2023-03-15T01:42:03.247Z,2.80
2023-03-15T01:43:03.347Z,2.80
2023-03-15T01:44:03.265Z,2.80
2023-03-15T01:45:03.316Z,2.80
2023-03-15T01:46:03.336Z,2.80
2023-03-15T01:47:03.509Z,2.80
2023-03-15T01:48:03.334Z,2.80
2023-03-15T01:49:03.415Z,2.80
2023-03-15T01:50:03.488Z,2.80
2023-03-15T01:51:03.456Z,2.80
2023-03-15T01:52:03.549Z,2.80
2023-03-15T01:53:02.591Z,2.80
2023-03-15T01:54:02.704Z,2.80
2023-03-15T01:55:02.672Z,2.80
2023-03-15T01:56:02.724Z,2.80
2023-03-15T01:57:02.780Z,2.80
2023-03-15T01:58:02.829Z,2.80
2023-03-15T01:59:02.830Z,2.80
2023-03-15T02:00:02.723Z,2.80
2023-03-15T02:01:02.854Z,2.80
2023-03-15T02:02:02.886Z,2.80
2023-03-15T02:03:02.828Z,2.70
2023-03-15T02:04:02.879Z,2.70
2023-03-15T02:05:02.757Z,2.70
2023-03-15T02:06:02.795Z,2.70
2023-03-15T02:07:02.841Z,2.70
2023-03-15T02:08:02.911Z,2.70
2023-03-15T02:09:02.876Z,2.70
2023-03-15T02:10:02.932Z,2.60
2023-03-15T02:11:03.010Z,2.60
2023-03-15T02:12:02.983Z,2.60
2023-03-15T02:13:02.894Z,2.60
2023-03-15T02:14:02.968Z,2.60
2023-03-15T02:15:03.041Z,2.60
2023-03-15T02:16:03.033Z,2.60
2023-03-15T02:17:03.033Z,2.60
2023-03-15T02:18:02.980Z,2.60
2023-03-15T02:19:03.023Z,2.50
2023-03-15T02:20:03.119Z,2.50
2023-03-15T02:21:03.081Z,2.50
2023-03-15T02:22:03.026Z,2.50
2023-03-15T02:23:02.990Z,2.50
2023-03-15T02:24:02.927Z,2.50
2023-03-15T02:25:03.046Z,2.50
2023-03-15T02:26:02.973Z,2.50
2023-03-15T02:27:03.071Z,2.50
2023-03-15T02:28:03.142Z,2.50
2023-03-15T02:29:03.080Z,2.40
2023-03-15T02:30:03.211Z,2.40
2023-03-15T02:31:03.207Z,2.40
2023-03-15T02:32:03.584Z,2.40
2023-03-15T02:33:02.851Z,2.40
2023-03-15T02:34:02.952Z,2.40
2023-03-15T02:35:02.910Z,2.40
2023-03-15T02:36:02.934Z,2.40
2023-03-15T02:37:02.884Z,2.30
2023-03-15T02:38:02.995Z,2.30
2023-03-15T02:39:03.024Z,2.30
2023-03-15T02:40:02.961Z,2.30
2023-03-15T02:41:02.993Z,2.30
2023-03-15T02:42:02.994Z,2.30
2023-03-15T02:43:03.029Z,2.30
2023-03-15T02:44:03.039Z,2.30
2023-03-15T02:45:03.018Z,2.20
2023-03-15T02:46:02.999Z,2.20
2023-03-15T02:47:02.964Z,2.20
2023-03-15T02:48:02.996Z,2.20
2023-03-15T02:49:02.956Z,2.20
2023-03-15T02:50:03.000Z,2.20
2023-03-15T02:51:03.044Z,2.20
2023-03-15T02:52:02.982Z,2.20
2023-03-15T02:53:03.043Z,2.20
2023-03-15T02:54:02.962Z,2.10
2023-03-15T02:55:02.974Z,2.20
2023-03-15T02:56:02.954Z,2.10
2023-03-15T02:57:02.912Z,2.10
2023-03-15T02:58:02.956Z,2.10
2023-03-15T02:59:02.896Z,2.10
2023-03-15T03:00:03.057Z,2.10
2023-03-15T03:01:03.014Z,2.10
2023-03-15T03:02:02.958Z,2.10
2023-03-15T03:03:03.092Z,2.10
2023-03-15T03:04:03.074Z,2.10
2023-03-15T03:05:03.147Z,2.10
2023-03-15T03:06:03.225Z,2.10
2023-03-15T03:07:03.296Z,2.10
2023-03-15T03:08:03.286Z,2.10
2023-03-15T03:09:03.332Z,2.10
2023-03-15T03:10:03.250Z,2.00
2023-03-15T03:11:03.301Z,2.00
2023-03-15T03:12:03.350Z,2.00
2023-03-15T03:13:03.337Z,2.00
2023-03-15T03:14:03.286Z,2.00
2023-03-15T03:15:03.275Z,2.00
2023-03-15T03:16:03.450Z,2.00
2023-03-15T03:17:03.552Z,2.00
2023-03-15T03:18:03.537Z,2.00
2023-03-15T03:19:03.526Z,2.00
2023-03-15T03:20:03.475Z,1.90
2023-03-15T03:21:03.553Z,1.90
2023-03-15T03:22:03.565Z,1.90
2023-03-15T03:23:03.591Z,1.90
2023-03-15T03:24:03.478Z,1.90
2023-03-15T03:25:03.543Z,1.90
2023-03-15T03:26:03.471Z,1.90
2023-03-15T03:27:03.427Z,1.90
2023-03-15T03:28:03.492Z,1.90
2023-03-15T03:29:03.552Z,1.90
2023-03-15T03:30:03.597Z,1.90
2023-03-15T03:31:03.664Z,1.90
2023-03-15T03:32:02.653Z,1.90
2023-03-15T03:33:02.658Z,1.90
2023-03-15T03:34:02.689Z,1.90
2023-03-15T03:35:02.720Z,1.90
2023-03-15T03:36:02.667Z,1.80
2023-03-15T03:37:02.787Z,1.80
2023-03-15T03:38:02.741Z,1.80
2023-03-15T03:39:02.859Z,1.70
2023-03-15T03:40:03.016Z,1.70
2023-03-15T03:41:03.027Z,1.70
2023-03-15T03:42:03.055Z,1.70
2023-03-15T03:43:03.206Z,1.70
2023-03-15T03:44:03.141Z,1.60
2023-03-15T03:45:03.160Z,1.60
2023-03-15T03:46:03.271Z,1.60
2023-03-15T03:47:03.182Z,1.60
2023-03-15T03:48:03.162Z,1.50
2023-03-15T03:49:03.157Z,1.50
2023-03-15T03:50:03.124Z,1.50
2023-03-15T03:51:03.265Z,1.50
2023-03-15T03:52:03.187Z,1.50
2023-03-15T03:53:03.226Z,1.50
2023-03-15T03:54:03.194Z,1.50
2023-03-15T03:55:03.154Z,1.40
2023-03-15T03:56:03.210Z,1.50
2023-03-15T03:57:03.245Z,1.40
2023-03-15T03:58:03.324Z,1.40
2023-03-15T03:59:03.333Z,1.40
2023-03-15T04:00:03.317Z,1.40
2023-03-15T04:01:03.344Z,1.40
2023-03-15T04:02:03.386Z,1.40
2023-03-15T04:03:03.440Z,1.40
2023-03-15T04:04:02.771Z,1.40
2023-03-15T04:05:02.807Z,1.30
2023-03-15T04:06:02.775Z,1.30
2023-03-15T04:07:02.806Z,1.30
2023-03-15T04:08:02.828Z,1.30
2023-03-15T04:09:02.944Z,1.30
2023-03-15T04:10:02.945Z,1.30
2023-03-15T04:11:02.894Z,1.30
2023-03-15T04:12:03.104Z,1.30
2023-03-15T04:13:03.054Z,1.30
2023-03-15T04:14:03.127Z,1.30
2023-03-15T04:15:03.186Z,1.30
2023-03-15T04:16:03.114Z,1.30
2023-03-15T04:17:03.250Z,1.30
2023-03-15T04:18:03.305Z,1.30
2023-03-15T04:19:03.408Z,1.30
2023-03-15T04:20:03.465Z,1.30
2023-03-15T04:21:03.415Z,1.30
2023-03-15T04:22:03.416Z,1.30
2023-03-15T04:23:03.494Z,1.30
2023-03-15T04:24:03.475Z,1.30
2023-03-15T04:25:03.447Z,1.20
2023-03-15T04:26:03.444Z,1.20
2023-03-15T04:27:03.473Z,1.20
2023-03-15T04:28:03.530Z,1.20
2023-03-15T04:29:03.463Z,1.20
2023-03-15T04:31:02.788Z,1.20
2023-03-15T04:32:02.708Z,1.10
2023-03-15T04:33:02.767Z,1.10
2023-03-15T04:34:02.768Z,1.10
2023-03-15T04:35:02.811Z,1.10
2023-03-15T04:36:02.985Z,1.10
2023-03-15T04:37:02.929Z,1.10
2023-03-15T04:38:02.923Z,1.10
2023-03-15T04:39:02.852Z,1.10
2023-03-15T04:40:02.948Z,1.10
2023-03-15T04:41:02.935Z,1.00
2023-03-15T04:42:03.006Z,1.00
2023-03-15T04:43:03.112Z,1.00
2023-03-15T04:44:03.058Z,1.00
2023-03-15T04:45:03.191Z,1.00
2023-03-15T04:46:03.204Z,1.00
2023-03-15T04:47:03.137Z,1.00
2023-03-15T04:48:03.109Z,0.90
2023-03-15T04:49:03.202Z,1.00
2023-03-15T04:50:03.246Z,0.90
2023-03-15T04:51:03.169Z,0.90
2023-03-15T04:52:03.288Z,0.90
2023-03-15T04:53:03.413Z,0.90
2023-03-15T04:54:03.386Z,0.90
2023-03-15T04:55:03.423Z,0.90
2023-03-15T04:56:04.816Z,0.90
2023-03-15T04:57:03.407Z,0.90
2023-03-15T04:58:03.386Z,0.90
2023-03-15T04:59:03.446Z,0.90
2023-03-15T05:00:03.472Z,0.80
2023-03-15T05:01:03.490Z,0.80
2023-03-15T05:02:03.972Z,0.80
2023-03-15T05:03:03.479Z,0.80
2023-03-15T05:04:03.500Z,0.80
2023-03-15T05:05:03.524Z,0.80
2023-03-15T05:06:02.625Z,0.80
2023-03-15T05:07:02.614Z,0.80
2023-03-15T05:08:02.692Z,0.80
2023-03-15T05:09:02.737Z,0.80
2023-03-15T05:10:02.678Z,0.80
2023-03-15T05:11:02.778Z,0.80
2023-03-15T05:12:02.753Z,0.70
2023-03-15T05:13:02.674Z,0.70
2023-03-15T05:14:02.630Z,0.70
2023-03-15T05:15:03.660Z,0.70
2023-03-15T05:16:02.674Z,0.70
2023-03-15T05:17:02.770Z,0.70
2023-03-15T05:18:02.861Z,0.70
2023-03-15T05:19:02.778Z,0.70
2023-03-15T05:20:02.831Z,0.70
2023-03-15T05:21:02.818Z,0.70
2023-03-15T05:22:02.904Z,0.70
2023-03-15T05:23:02.858Z,0.70
2023-03-15T05:24:03.030Z,0.70
2023-03-15T05:25:03.311Z,0.70
2023-03-15T05:26:03.393Z,0.70
2023-03-15T05:27:03.418Z,0.60
2023-03-15T05:28:03.421Z,0.60
2023-03-15T05:29:03.449Z,0.60
2023-03-15T05:30:03.455Z,0.60
2023-03-15T05:31:03.533Z,0.60
2023-03-15T05:32:03.425Z,0.60
2023-03-15T05:33:03.403Z,0.60
2023-03-15T05:34:03.456Z,0.60
2023-03-15T05:35:03.412Z,0.60
2023-03-15T05:36:03.264Z,0.60
2023-03-15T05:37:03.333Z,0.60
2023-03-15T05:38:03.336Z,0.60
2023-03-15T05:39:03.524Z,0.60
2023-03-15T05:40:02.679Z,0.60
2023-03-15T05:41:02.827Z,0.60
2023-03-15T05:42:02.958Z,0.60
2023-03-15T05:43:03.021Z,0.60
2023-03-15T05:44:03.048Z,0.60
2023-03-15T05:45:03.215Z,0.60
2023-03-15T05:46:03.307Z,0.60
2023-03-15T05:47:03.593Z,0.60
2023-03-15T05:48:03.611Z,0.60
2023-03-15T05:49:03.595Z,0.60
2023-03-15T05:50:02.670Z,0.60
2023-03-15T05:51:02.682Z,0.70
2023-03-15T05:52:03.685Z,0.70
2023-03-15T05:53:03.636Z,0.70
2023-03-15T05:54:03.632Z,0.70
2023-03-15T05:55:02.743Z,0.70
2023-03-15T05:56:02.874Z,0.70
2023-03-15T05:57:02.840Z,0.70
2023-03-15T05:58:03.027Z,0.70
2023-03-15T05:59:03.028Z,0.80
2023-03-15T06:00:03.133Z,0.90
2023-03-15T06:01:03.044Z,0.90
2023-03-15T06:02:03.050Z,1.00
2023-03-15T06:03:03.037Z,1.10
2023-03-15T06:04:03.073Z,1.20
2023-03-15T06:05:03.060Z,1.30
2023-03-15T06:06:03.104Z,1.40
2023-03-15T06:07:03.114Z,1.50
2023-03-15T06:08:03.280Z,1.50
2023-03-15T06:09:03.333Z,1.60
2023-03-15T06:10:03.304Z,1.60
2023-03-15T06:11:03.383Z,1.60
2023-03-15T06:12:03.472Z,1.70
2023-03-15T06:13:03.533Z,1.70
2023-03-15T06:14:03.635Z,1.70
2023-03-15T06:15:02.612Z,1.60
2023-03-15T06:16:02.672Z,1.60
2023-03-15T06:17:02.854Z,1.60
2023-03-15T06:18:02.837Z,1.60
2023-03-15T06:19:03.006Z,1.60
2023-03-15T06:20:02.932Z,1.60
2023-03-15T06:21:03.117Z,1.60
2023-03-15T06:22:02.933Z,1.60
2023-03-15T06:23:02.961Z,1.60
2023-03-15T06:24:03.031Z,1.50
2023-03-15T06:25:03.099Z,1.50
2023-03-15T06:26:03.049Z,1.50
2023-03-15T06:27:03.114Z,1.50
2023-03-15T06:28:03.049Z,1.50
2023-03-15T06:29:03.125Z,1.50
2023-03-15T06:30:03.104Z,1.40
2023-03-15T06:31:03.174Z,1.40
2023-03-15T06:32:03.088Z,1.40
2023-03-15T06:33:03.293Z,1.40
2023-03-15T06:34:03.262Z,1.40
2023-03-15T06:35:03.189Z,1.40
2023-03-15T06:36:03.154Z,1.40
2023-03-15T06:37:03.174Z,1.40
2023-03-15T06:38:03.235Z,1.40
2023-03-15T06:39:03.296Z,1.40
2023-03-15T06:40:03.330Z,1.40
2023-03-15T06:41:03.309Z,1.40
2023-03-15T06:42:03.216Z,1.40
2023-03-15T06:43:03.404Z,1.40
2023-03-15T06:44:03.271Z,1.40
2023-03-15T06:45:03.236Z,1.40
2023-03-15T06:46:03.297Z,1.40
2023-03-15T06:47:03.251Z,1.40
2023-03-15T06:48:03.363Z,1.50
2023-03-15T06:49:03.465Z,1.50
2023-03-15T06:50:03.431Z,1.50
2023-03-15T06:51:03.406Z,1.50
2023-03-15T06:52:03.516Z,1.50
2023-03-15T06:53:02.636Z,1.50
2023-03-15T06:54:02.661Z,1.50
2023-03-15T06:55:02.786Z,1.50
2023-03-15T06:56:02.686Z,1.60
2023-03-15T06:57:02.692Z,1.60
2023-03-15T06:58:02.746Z,1.60
2023-03-15T06:59:02.717Z,1.60
2023-03-15T07:00:02.880Z,1.60
2023-03-15T07:01:02.926Z,1.60
2023-03-15T07:02:02.909Z,1.60
2023-03-15T07:03:02.856Z,1.60
2023-03-15T07:04:02.804Z,1.60
2023-03-15T07:05:02.861Z,1.60
2023-03-15T07:06:02.797Z,1.60
2023-03-15T07:07:02.883Z,1.60
2023-03-15T07:08:02.746Z,1.70
2023-03-15T07:09:02.779Z,1.70
2023-03-15T07:10:02.880Z,1.70
2023-03-15T07:11:02.981Z,1.70
2023-03-15T07:12:03.064Z,1.70
2023-03-15T07:13:03.173Z,1.70
2023-03-15T07:14:03.273Z,1.70
2023-03-15T07:15:03.132Z,1.70
2023-03-15T07:16:03.345Z,1.80
2023-03-15T07:17:03.434Z,1.80
2023-03-15T07:18:03.561Z,1.80
2023-03-15T07:19:03.589Z,1.80
2023-03-15T07:20:03.629Z,1.90
2023-03-15T07:21:03.654Z,1.90
2023-03-15T07:22:02.689Z,1.90
2023-03-15T07:23:02.644Z,1.90
2023-03-15T07:24:02.703Z,1.90
2023-03-15T07:25:02.676Z,1.90
2023-03-15T07:26:02.670Z,1.90
2023-03-15T07:27:02.779Z,2.00
2023-03-15T07:28:02.850Z,2.00
2023-03-15T07:29:02.762Z,2.00
2023-03-15T07:30:02.831Z,2.00
2023-03-15T07:31:02.854Z,2.00
2023-03-15T07:32:02.822Z,2.00
2023-03-15T07:33:02.926Z,2.00
2023-03-15T07:34:02.920Z,2.10
2023-03-15T07:35:02.984Z,2.10
2023-03-15T07:36:03.164Z,2.10
2023-03-15T07:37:03.163Z,2.10
2023-03-15T07:38:03.145Z,2.10
2023-03-15T07:39:03.247Z,2.20
2023-03-15T07:40:03.102Z,2.20
2023-03-15T07:41:03.226Z,2.20
2023-03-15T07:42:03.193Z,2.20
2023-03-15T07:43:03.274Z,2.20
2023-03-15T07:44:03.247Z,2.30
2023-03-15T07:45:03.412Z,2.30
2023-03-15T07:46:03.365Z,2.30
2023-03-15T07:47:03.332Z,2.30
2023-03-15T07:48:03.401Z,2.30
2023-03-15T07:49:03.516Z,2.30
2023-03-15T07:50:03.631Z,2.30
2023-03-15T07:51:03.576Z,2.40
2023-03-15T07:52:03.661Z,2.40
2023-03-15T07:53:03.541Z,2.40
2023-03-15T07:54:03.528Z,2.40
2023-03-15T07:55:02.634Z,2.40
2023-03-15T07:56:03.434Z,2.40
2023-03-15T07:57:03.544Z,2.40
2023-03-15T07:58:03.618Z,2.40
2023-03-15T07:59:02.638Z,2.40
2023-03-15T08:00:02.733Z,2.40
2023-03-15T08:01:02.782Z,2.40
2023-03-15T08:02:03.299Z,2.40
2023-03-15T08:03:02.760Z,2.40
2023-03-15T08:04:02.740Z,2.50
2023-03-15T08:05:02.720Z,2.50
2023-03-15T08:06:02.790Z,2.50
2023-03-15T08:07:02.897Z,2.50
2023-03-15T08:08:02.994Z,2.50
2023-03-15T08:09:03.008Z,2.50
2023-03-15T08:10:03.102Z,2.40
2023-03-15T08:11:03.062Z,2.40
2023-03-15T08:12:03.129Z,2.40
2023-03-15T08:13:03.062Z,2.40
2023-03-15T08:14:03.006Z,2.40
2023-03-15T08:15:03.087Z,2.40
2023-03-15T08:16:03.060Z,2.40
2023-03-15T08:17:03.107Z,2.40
2023-03-15T08:18:04.149Z,2.30
2023-03-15T08:19:03.061Z,2.30
2023-03-15T08:20:03.201Z,2.30
2023-03-15T08:21:03.122Z,2.30
2023-03-15T08:22:03.217Z,2.30
2023-03-15T08:23:03.138Z,2.30
2023-03-15T08:24:03.143Z,2.30
2023-03-15T08:25:03.063Z,2.30
2023-03-15T08:26:03.144Z,2.30
2023-03-15T08:27:03.134Z,2.30
2023-03-15T08:28:03.095Z,2.30
2023-03-15T08:29:03.100Z,2.30
2023-03-15T08:30:03.159Z,2.30
2023-03-15T08:31:03.187Z,2.30
2023-03-15T08:32:03.325Z,2.30
2023-03-15T08:33:03.312Z,2.30
2023-03-15T08:34:03.286Z,2.30
2023-03-15T08:35:03.269Z,2.40
2023-03-15T08:36:03.394Z,2.40
2023-03-15T08:37:03.281Z,2.40
2023-03-15T08:38:03.392Z,2.40
2023-03-15T08:39:03.490Z,2.40
2023-03-15T08:40:03.485Z,2.40
2023-03-15T08:41:03.365Z,2.40
2023-03-15T08:42:03.336Z,2.40
2023-03-15T08:43:03.555Z,2.40
2023-03-15T08:44:03.494Z,2.40
2023-03-15T08:45:03.485Z,2.40
2023-03-15T08:46:03.615Z,2.40
2023-03-15T08:47:03.654Z,2.40
2023-03-15T08:48:03.483Z,2.40
2023-03-15T08:49:02.689Z,2.40
2023-03-15T08:50:02.740Z,2.40
2023-03-15T08:51:02.741Z,2.40
2023-03-15T08:52:02.712Z,2.40
2023-03-15T08:53:02.760Z,2.40
2023-03-15T08:54:02.865Z,2.40
2023-03-15T08:55:02.946Z,2.50
2023-03-15T08:56:03.028Z,2.50
2023-03-15T08:57:02.944Z,2.50
2023-03-15T08:58:04.410Z,2.50
2023-03-15T08:59:03.014Z,2.60
2023-03-15T09:00:03.031Z,2.60
2023-03-15T09:01:02.921Z,2.70
2023-03-15T09:02:03.014Z,2.70
2023-03-15T09:03:03.115Z,2.70
2023-03-15T09:04:03.193Z,2.70
2023-03-15T09:05:03.129Z,2.80
2023-03-15T09:06:03.092Z,2.80
2023-03-15T09:07:03.234Z,2.80
2023-03-15T09:08:03.393Z,2.80
2023-03-15T09:09:03.462Z,2.90
2023-03-15T09:10:05.356Z,2.90
2023-03-15T09:11:03.404Z,2.90
2023-03-15T09:12:03.536Z,2.90
2023-03-15T09:13:03.584Z,2.90
2023-03-15T09:14:02.704Z,3.00
2023-03-15T09:15:02.700Z,3.00
2023-03-15T09:16:02.792Z,3.00
2023-03-15T09:17:02.775Z,3.00
2023-03-15T09:18:02.730Z,3.00
2023-03-15T09:19:02.857Z,3.00
2023-03-15T09:20:02.928Z,3.10
2023-03-15T09:21:02.872Z,3.10
2023-03-15T09:22:10.868Z,3.10
2023-03-15T09:23:02.971Z,3.10
2023-03-15T09:24:03.021Z,3.10
2023-03-15T09:25:03.031Z,3.10
2023-03-15T09:26:02.985Z,3.20
2023-03-15T09:27:02.975Z,3.20
2023-03-15T09:28:03.028Z,3.20
2023-03-15T09:29:03.107Z,3.20
2023-03-15T09:30:03.114Z,3.20
2023-03-15T09:31:03.179Z,3.20
2023-03-15T09:32:03.152Z,3.20
2023-03-15T09:33:03.160Z,3.20
2023-03-15T09:34:03.168Z,3.20
2023-03-15T09:35:03.088Z,3.20
2023-03-15T09:36:03.252Z,3.20
2023-03-15T09:37:03.381Z,3.30
2023-03-15T09:38:03.493Z,3.20
2023-03-15T09:39:03.626Z,3.20
2023-03-15T09:40:02.720Z,3.20
2023-03-15T09:41:02.670Z,3.20
2023-03-15T09:42:04.212Z,3.20
2023-03-15T09:43:02.712Z,3.20
2023-03-15T09:44:03.198Z,3.20
2023-03-15T09:45:03.245Z,3.20
2023-03-15T09:46:03.203Z,3.20
2023-03-15T09:47:03.315Z,3.20
2023-03-15T09:48:03.216Z,3.20
2023-03-15T09:49:03.252Z,3.30
2023-03-15T09:50:03.249Z,3.30
2023-03-15T09:51:03.387Z,3.30
2023-03-15T09:52:03.373Z,3.30
2023-03-15T09:53:03.500Z,3.30
2023-03-15T09:54:03.450Z,3.30
2023-03-15T09:55:03.391Z,3.30
2023-03-15T09:56:03.560Z,3.20
2023-03-15T09:57:03.517Z,3.20
2023-03-15T09:58:03.557Z,3.20
2023-03-15T09:59:03.478Z,3.20
2023-03-15T10:00:03.409Z,3.30
2023-03-15T10:01:03.449Z,3.20
2023-03-15T10:02:03.604Z,3.30
2023-03-15T10:03:03.671Z,3.30
2023-03-15T10:04:02.909Z,3.30
2023-03-15T10:05:02.768Z,3.30
2023-03-15T10:06:02.836Z,3.40
2023-03-15T10:07:02.906Z,3.40
2023-03-15T10:08:02.920Z,3.50
2023-03-15T10:09:02.835Z,3.50
2023-03-15T10:10:02.980Z,3.50
2023-03-15T10:11:02.951Z,3.60
2023-03-15T10:12:03.020Z,3.70
2023-03-15T10:13:02.997Z,3.70
2023-03-15T10:14:03.027Z,3.70
2023-03-15T10:15:03.076Z,3.80
2023-03-15T10:16:03.224Z,3.80
2023-03-15T10:17:03.246Z,3.80
2023-03-15T10:18:03.342Z,3.80
2023-03-15T10:19:03.309Z,3.80
2023-03-15T10:20:03.407Z,3.80
2023-03-15T10:21:03.353Z,3.80
2023-03-15T10:22:03.416Z,3.80
2023-03-15T10:23:03.466Z,3.80
2023-03-15T10:24:03.409Z,3.80
2023-03-15T10:25:03.512Z,3.80
2023-03-15T10:26:03.502Z,3.80
2023-03-15T10:27:03.524Z,3.80
2023-03-15T10:28:03.529Z,3.80
2023-03-15T10:29:02.688Z,3.90
2023-03-15T10:30:02.695Z,3.90
2023-03-15T10:31:03.194Z,3.90
2023-03-15T10:32:03.214Z,4.00
2023-03-15T10:33:03.628Z,4.00
2023-03-15T10:34:03.168Z,4.00
2023-03-15T10:35:03.255Z,4.10
2023-03-15T10:36:10.876Z,4.10
2023-03-15T10:37:03.416Z,4.10
2023-03-15T10:38:03.528Z,4.20
2023-03-15T10:39:03.629Z,4.20
2023-03-15T10:40:03.488Z,4.30
2023-03-15T10:41:02.661Z,4.30
2023-03-15T10:42:02.702Z,4.40
2023-03-15T10:43:02.945Z,4.40
2023-03-15T10:44:03.028Z,4.40
2023-03-15T10:45:03.066Z,4.50
2023-03-15T10:46:02.971Z,4.50
2023-03-15T10:47:09.972Z,4.60
2023-03-15T10:48:03.161Z,4.70
2023-03-15T10:49:03.186Z,4.80
2023-03-15T10:50:03.225Z,4.90
2023-03-15T10:51:03.159Z,5.00
2023-03-15T10:52:03.218Z,5.10
2023-03-15T10:53:03.266Z,5.20
2023-03-15T10:54:03.349Z,5.30
2023-03-15T10:55:04.479Z,5.40
2023-03-15T10:56:03.441Z,5.50
2023-03-15T10:57:03.412Z,5.50
2023-03-15T10:58:03.436Z,5.60
2023-03-15T10:59:12.184Z,5.70
2023-03-15T11:00:03.421Z,5.70
2023-03-15T11:01:03.454Z,5.80
2023-03-15T11:02:03.546Z,5.80
2023-03-15T11:03:03.490Z,5.80
2023-03-15T11:04:03.594Z,5.90
2023-03-15T11:05:03.525Z,5.90
2023-03-15T11:06:03.466Z,5.90
2023-03-15T11:07:03.638Z,5.80
2023-03-15T11:08:03.575Z,5.90
2023-03-15T11:09:03.481Z,5.90
2023-03-15T11:10:03.722Z,5.90
2023-03-15T11:11:03.548Z,5.90
2023-03-15T11:12:03.498Z,5.90
2023-03-15T11:13:03.504Z,5.80
2023-03-15T11:14:03.568Z,5.80
2023-03-15T11:15:03.546Z,5.80
2023-03-15T11:16:02.666Z,5.80
2023-03-15T11:17:02.798Z,5.80
2023-03-15T11:18:02.776Z,5.80
2023-03-15T11:19:02.869Z,5.80
2023-03-15T11:20:02.950Z,5.80
2023-03-15T11:21:02.916Z,5.80
2023-03-15T11:22:03.037Z,5.70
2023-03-15T11:23:02.939Z,5.70
2023-03-15T11:24:02.911Z,5.60
2023-03-15T11:25:03.015Z,5.60
2023-03-15T11:26:02.947Z,5.60
2023-03-15T11:27:03.111Z,5.50
2023-03-15T11:28:03.244Z,5.40
2023-03-15T11:29:03.198Z,5.30
2023-03-15T11:30:03.221Z,5.30
2023-03-15T11:31:03.192Z,5.20
2023-03-15T11:32:03.295Z,5.10
2023-03-15T11:33:03.454Z,5.00
2023-03-15T11:34:03.498Z,4.90
2023-03-15T11:35:03.554Z,4.80
2023-03-15T11:36:03.631Z,4.80
2023-03-15T11:37:08.239Z,4.70
2023-03-15T11:38:13.152Z,4.60
2023-03-15T11:39:03.115Z,4.50
2023-03-15T11:40:11.079Z,4.50
2023-03-15T11:41:02.695Z,4.40
2023-03-15T11:42:02.664Z,4.40
2023-03-15T11:43:02.666Z,4.30
2023-03-15T11:44:02.763Z,4.30
2023-03-15T11:45:02.990Z,4.20
2023-03-15T11:46:03.158Z,4.20
2023-03-15T11:47:03.225Z,4.20
2023-03-15T11:48:03.187Z,4.10
2023-03-15T11:49:03.198Z,4.10
2023-03-15T11:50:03.229Z,4.10
2023-03-15T11:51:03.265Z,4.10
2023-03-15T11:52:03.422Z,4.00
2023-03-15T11:53:03.385Z,4.00
2023-03-15T11:54:03.396Z,4.00
2023-03-15T11:55:03.500Z,4.00
2023-03-15T11:56:03.530Z,4.00
2023-03-15T11:57:03.539Z,4.00
2023-03-15T11:58:03.498Z,4.00
2023-03-15T11:59:03.596Z,4.00
2023-03-15T12:00:03.587Z,3.90
2023-03-15T12:01:03.639Z,3.90
2023-03-15T12:02:03.537Z,3.90
2023-03-15T12:03:02.733Z,3.90
2023-03-15T12:04:02.643Z,3.90
2023-03-15T12:05:12.528Z,3.90
2023-03-15T12:06:02.710Z,3.90
2023-03-15T12:07:02.835Z,4.00
2023-03-15T12:08:02.806Z,4.00
2023-03-15T12:09:02.874Z,4.00
2023-03-15T12:10:02.818Z,4.00
2023-03-15T12:11:02.796Z,4.10
2023-03-15T12:12:02.827Z,4.10
2023-03-15T12:13:03.005Z,4.10
2023-03-15T12:14:02.970Z,4.10
2023-03-15T12:15:03.055Z,4.10
2023-03-15T12:16:03.095Z,4.10
2023-03-15T12:17:03.132Z,4.10
2023-03-15T12:18:03.149Z,4.00
2023-03-15T12:19:03.276Z,4.00
2023-03-15T12:20:03.241Z,4.00
2023-03-15T12:21:03.162Z,3.90
2023-03-15T12:22:03.277Z,3.90
2023-03-15T12:23:03.443Z,3.80
2023-03-15T12:24:03.530Z,3.80
2023-03-15T12:25:03.529Z,3.60
2023-03-15T12:26:02.641Z,3.60
2023-03-15T12:27:02.655Z,3.50
2023-03-15T12:28:03.617Z,3.50
2023-03-15T12:29:02.674Z,3.50
2023-03-15T12:30:02.652Z,3.50
2023-03-15T12:31:02.839Z,3.40
2023-03-15T12:32:02.662Z,3.30
2023-03-15T12:33:02.739Z,3.30
2023-03-15T12:34:02.713Z,3.20
2023-03-15T12:35:02.774Z,3.20
2023-03-15T12:36:02.852Z,3.20
2023-03-15T12:37:02.890Z,3.20
2023-03-15T12:38:02.924Z,3.20
2023-03-15T12:39:02.886Z,3.20
2023-03-15T12:40:02.886Z,3.20
2023-03-15T12:41:02.786Z,3.10
2023-03-15T12:42:02.755Z,3.10
2023-03-15T12:43:02.692Z,3.00
2023-03-15T12:44:03.588Z,3.00
2023-03-15T12:45:02.665Z,3.00
2023-03-15T12:46:02.671Z,3.00
2023-03-15T12:47:02.697Z,3.10
2023-03-15T12:48:02.656Z,3.00
2023-03-15T12:49:02.632Z,3.00
2023-03-15T12:50:02.701Z,3.00
2023-03-15T12:51:02.752Z,3.00
2023-03-15T12:52:02.743Z,2.90
2023-03-15T12:53:02.843Z,2.90
2023-03-15T12:54:02.908Z,2.90
2023-03-15T12:55:02.843Z,3.00
2023-03-15T12:56:08.388Z,3.00
2023-03-15T12:57:02.877Z,3.00
2023-03-15T12:58:02.936Z,3.00
2023-03-15T12:59:02.887Z,3.00
2023-03-15T13:00:03.027Z,3.00
2023-03-15T13:01:03.102Z,3.10
2023-03-15T13:02:03.038Z,3.10
2023-03-15T13:03:03.167Z,3.10
2023-03-15T13:04:02.960Z,3.10
2023-03-15T13:05:03.052Z,3.20
2023-03-15T13:06:04.025Z,3.20
2023-03-15T13:07:03.017Z,3.20
2023-03-15T13:08:03.167Z,3.30
2023-03-15T13:09:03.134Z,3.30
2023-03-15T13:10:03.129Z,3.30
2023-03-15T13:11:03.163Z,3.40
2023-03-15T13:12:03.253Z,3.40
2023-03-15T13:13:03.286Z,3.40
2023-03-15T13:14:03.133Z,3.50
2023-03-15T13:15:03.233Z,3.50
2023-03-15T13:16:03.375Z,3.50
2023-03-15T13:17:05.213Z,3.60
2023-03-15T13:18:03.380Z,3.60
2023-03-15T13:19:03.488Z,3.60